Fairgrove, Michigan
Current Conditions -  °F | °C
As of 1:15 AM on Monday 22 Dec 2014 (Local Time) from KCFS Reporting Station
Overcast Overcast  
Wind Chill: 23°   Ceiling: 5000
Heat Index: 30°   Visibility: 7mi
Dew Point: 24°   Wind: 7mph
Humidity: 79%   Direction: 150°SSE
Pressure: 30.15"   Gusts: NA
Location:  43.52°N, 83.54°W
Report Text: KCFS 220615Z AUTO 15006KT 7SM OVC050 M01/M04 A3015 RMK AO2 T10101042
Loading
Personal Weather Stations






























Interactive Weather Map New forecast layout! Learn more

10-Day Weather Forecast

Advertisements
Track Severe Weather on mobile